Time;durP1;ratioP1;P1;durP2;ratioP2;P2;SDS_P1;SDS_P2;PMS_P1;PMS_P2;Temp;Humidity;BMP_temperature;BMP_pressure;BME280_temperature;BME280_humidity;BME280_pressure;Samples;Min_cycle;Max_cycle;Signal;HPM_P1;HPM_P2
2023/02/03 00:00:07;;;;;;;;;;;;;;;-144.99;100.00;52492.94;5024094;28;20503;-76
2023/02/03 00:02:34;;;;;;;;;;;;;;;-144.99;100.00;52497.00;5031455;28;19941;-77
2023/02/03 00:05:00;;;;;;;;;;;;;;;-144.99;100.00;52509.25;5027648;28;19964;-76
2023/02/03 00:07:27;;;;;;;;;;;;;;;-144.99;100.00;52513.31;5019893;28;19978;-78
2023/02/03 00:09:54;;;;;;;;;;;;;;;-144.99;100.00;52490.91;5020303;28;20048;-77
2023/02/03 00:12:21;;;;;;;;;;;;;;;-144.99;100.00;52517.41;5026251;28;20034;-76
2023/02/03 00:14:49;;;;;;;;;;;;;;;-144.99;100.00;52517.41;4686893;28;9999925;-77
2023/02/03 00:17:15;;;;;;;;;;;;;;;-144.99;100.00;52505.16;5035633;28;20365;-77
2023/02/03 00:19:42;;;;;;;;;;;;;;;-144.99;100.00;52456.25;5018584;28;20349;-73
2023/02/03 00:22:08;;;;;;;;;;;;;;;-144.99;100.00;52466.44;5035046;28;20444;-76
2023/02/03 00:24:34;;;;;;;;;;;;;;;-144.99;100.00;52472.56;5032587;28;20493;-76
2023/02/03 00:27:01;;;;;;;;;;;;;;;-144.99;100.00;52503.13;5035628;28;20030;-76
2023/02/03 00:29:27;;;;;;;;;;;;;;;-144.99;100.00;52492.94;5052962;28;19961;-72
2023/02/03 00:31:57;;;;;;;;;;;;;;;-144.99;100.00;52476.63;5038755;28;19980;-72
2023/02/03 00:34:27;;;;;;;;;;;;;;;-144.99;100.00;52472.56;5040176;28;20440;-73
2023/02/03 00:36:53;;;;;;;;;;;;;;;-144.99;100.00;52486.81;5032763;28;20058;-70
2023/02/03 00:39:20;;;;;;;;;;;;;;;-144.99;100.00;52423.63;5037471;28;20476;-71
2023/02/03 00:41:46;;;;;;;;;;;;;;;-144.99;100.00;52488.84;5033896;28;19997;-72
2023/02/03 00:44:14;;;;;;;;;;;;;;;-144.99;100.00;52444.03;5035808;28;19939;-73
2023/02/03 00:46:40;;;;;;;;;;;;;;;-144.99;100.00;52472.56;5023187;28;20081;-74
2023/02/03 00:49:08;;;;;;;;;;;;;;;-144.99;100.00;52460.31;5027282;28;20020;-75
2023/02/03 00:51:34;;;;;;;;;;;;;;;-144.99;100.00;52490.91;5022589;28;20487;-74
2023/02/03 00:54:01;;;;;;;;;;;;;;;-144.99;100.00;52468.47;5035520;28;19997;-77
2023/02/03 00:56:27;;;;;;;;;;;;;;;-144.99;100.00;52488.84;5025588;28;20399;-75
2023/02/03 00:58:54;;;;;;;;;;;;;;;-144.99;100.00;52456.25;5025853;28;20506;-77
2023/02/03 01:01:20;;;;;;;;;;;;;;;-144.99;100.00;52470.50;5024732;28;20435;-75
2023/02/03 01:03:47;;;;;;;;;;;;;;;-144.99;100.00;52419.56;5041732;28;19949;-79
2023/02/03 01:06:16;;;;;;;;;;;;;;;-144.99;100.00;52456.25;5043588;28;20006;-76
2023/02/03 01:08:42;;;;;;;;;;;;;;;-144.99;100.00;52492.94;5027561;28;19976;-77
2023/02/03 01:11:10;;;;;;;;;;;;;;;-144.99;100.00;52472.56;5030726;28;20378;-76
2023/02/03 01:13:37;;;;;;;;;;;;;;;-144.99;100.00;52415.47;5029291;28;20373;-76
2023/02/03 01:16:03;;;;;;;;;;;;;;;-144.99;100.00;52446.06;5028592;28;20038;-75
2023/02/03 01:18:29;;;;;;;;;;;;;;;-144.99;100.00;52476.63;5022530;28;20031;-76
2023/02/03 01:20:56;;;;;;;;;;;;;;;-144.99;100.00;52435.88;5028421;28;20015;-77
2023/02/03 01:23:24;;;;;;;;;;;;;;;-144.99;100.00;52464.41;5033700;28;20007;-75
2023/02/03 01:25:50;;;;;;;;;;;;;;;-144.99;100.00;52480.72;5028993;28;20047;-76
2023/02/03 01:28:17;;;;;;;;;;;;;;;-144.99;100.00;52452.16;5037823;28;20040;-75
2023/02/03 01:30:43;;;;;;;;;;;;;;;-144.99;100.00;52501.09;5031799;28;20000;-76
2023/02/03 01:33:09;;;;;;;;;;;;;;;-144.99;100.00;52464.41;5034216;28;19941;-76
2023/02/03 01:35:36;;;;;;;;;;;;;;;-144.99;100.00;52476.63;5029175;28;20051;-72
2023/02/03 01:38:03;;;;;;;;;;;;;;;-144.99;100.00;52480.72;5029302;28;19941;-73
2023/02/03 01:40:31;;;;;;;;;;;;;;;-144.99;100.00;52486.81;5040471;28;20007;-76
2023/02/03 01:42:57;;;;;;;;;;;;;;;-144.99;100.00;52497.00;5027941;28;19964;-79
2023/02/03 01:45:24;;;;;;;;;;;;;;;-144.99;100.00;52468.47;5035460;28;20030;-76
2023/02/03 01:47:52;;;;;;;;;;;;;;;-144.99;100.00;52448.09;5026518;28;20074;-75
2023/02/03 01:50:21;;;;;;;;;;;;;;;-144.99;100.00;52439.94;5023194;28;19997;-75
2023/02/03 01:52:50;;;;;;;;;;;;;;;-144.99;100.00;52448.09;5027080;28;19968;-76
2023/02/03 01:55:19;;;;;;;;;;;;;;;-144.99;100.00;52480.72;5026674;28;20065;-74
2023/02/03 01:57:49;;;;;;;;;;;;;;;-144.99;100.00;52468.47;5027122;28;20489;-79
2023/02/03 02:00:16;;;;;;;;;;;;;;;-144.99;100.00;52448.09;5035284;28;20010;-74
2023/02/03 02:02:44;;;;;;;;;;;;;;;-144.99;100.00;52501.09;5025955;28;19978;-74
2023/02/03 02:05:13;;;;;;;;;;;;;;;-144.99;100.00;52472.56;5034188;28;20033;-74
2023/02/03 02:07:41;;;;;;;;;;;;;;;-144.99;100.00;52478.66;5035718;28;20501;-75
2023/02/03 02:10:08;;;;;;;;;;;;;;;-144.99;100.00;52480.72;5029704;28;20658;-74
2023/02/03 02:12:34;;;;;;;;;;;;;;;-144.99;100.00;52480.72;5029847;28;20477;-74
2023/02/03 02:15:02;;;;;;;;;;;;;;;-144.99;100.00;52472.56;5045436;28;19980;-76
2023/02/03 02:17:39;;;;;;;;;;;;;;;-144.99;100.00;52476.63;5035460;28;19996;-73
2023/02/03 02:20:32;;;;;;;;;;;;;;;-144.99;100.00;52403.25;5030958;28;20052;-73
2023/02/03 02:23:20;;;;;;;;;;;;;;;-144.99;100.00;52472.56;5029924;28;20071;-74
2023/02/03 02:25:56;;;;;;;;;;;;;;;-144.99;100.00;52464.41;5019614;28;20312;-74
2023/02/03 02:28:43;;;;;;;;;;;;;;;-144.99;100.00;52458.28;5032376;28;20252;-75
2023/02/03 02:31:30;;;;;;;;;;;;;;;-144.99;100.00;52468.47;5029771;28;20055;-75
2023/02/03 02:34:00;;;;;;;;;;;;;;;-144.99;100.00;52472.56;5027453;28;19978;-74
2023/02/03 02:36:30;;;;;;;;;;;;;;;-144.99;100.00;52476.63;5023658;28;20037;-77
2023/02/03 02:39:00;;;;;;;;;;;;;;;-144.99;100.00;52462.34;5025639;28;19974;-75
2023/02/03 02:41:29;;;;;;;;;;;;;;;-144.99;100.00;52464.41;5029287;28;19997;-77
2023/02/03 02:44:00;;;;;;;;;;;;;;;-144.99;100.00;52458.28;5034388;28;20338;-74
2023/02/03 02:46:31;;;;;;;;;;;;;;;-144.99;100.00;52462.34;5029134;28;19953;-76
2023/02/03 02:49:01;;;;;;;;;;;;;;;-144.99;100.00;52464.41;5029763;28;19970;-77
2023/02/03 02:51:29;;;;;;;;;;;;;;;-144.99;100.00;52478.66;5040608;28;19955;-78
2023/02/03 02:53:57;;;;;;;;;;;;;;;-144.99;100.00;52468.47;5043565;28;20068;-78
2023/02/03 02:56:25;;;;;;;;;;;;;;;-144.99;100.00;52439.94;5025932;28;20013;-76
2023/02/03 02:58:53;;;;;;;;;;;;;;;-144.99;100.00;52484.78;5029591;28;20003;-76
2023/02/03 03:01:20;;;;;;;;;;;;;;;-144.99;99.79;52476.63;5035043;28;19992;-75
2023/02/03 03:03:46;;;;;;;;;;;;;;;-144.99;98.68;52452.16;5031662;28;20035;-77
2023/02/03 03:06:17;;;;;;;;;;;;;;;-144.99;99.49;52474.59;5034905;28;20348;-74
2023/02/03 03:08:47;;;;;;;;;;;;;;;-144.99;100.00;52470.50;5029302;28;20724;-77
2023/02/03 03:11:13;;;;;;;;;;;;;;;-144.99;99.46;52450.13;5032096;28;20491;-76
2023/02/03 03:13:44;;;;;;;;;;;;;;;-144.99;98.38;52431.78;5039343;28;20534;-75
2023/02/03 03:16:12;;;;;;;;;;;;;;;-144.99;97.97;52476.63;5034162;28;20025;-77
2023/02/03 03:18:42;;;;;;;;;;;;;;;-144.99;97.92;52439.94;5038431;28;20527;-76
2023/02/03 03:21:10;;;;;;;;;;;;;;;-144.99;98.98;52468.47;5059264;22;20055;-72
2023/02/03 03:23:41;;;;;;;;;;;;;;;-144.99;99.34;52464.41;5029499;28;19993;-71
2023/02/03 03:26:10;;;;;;;;;;;;;;;-144.99;100.00;52439.94;5033570;28;19992;-71
2023/02/03 03:28:40;;;;;;;;;;;;;;;-144.99;100.00;52492.94;5031084;28;19942;-72
2023/02/03 03:31:07;;;;;;;;;;;;;;;-144.99;100.00;52460.31;5033492;28;20015;-73
2023/02/03 03:33:33;;;;;;;;;;;;;;;-144.99;100.00;52458.28;5028719;28;19975;-72
2023/02/03 03:36:03;;;;;;;;;;;;;;;-144.99;100.00;52480.72;5037130;28;19970;-71
2023/02/03 03:38:32;;;;;;;;;;;;;;;-144.99;100.00;52472.56;5030834;28;19993;-72
2023/02/03 03:41:02;;;;;;;;;;;;;;;-144.99;100.00;52433.81;5032381;28;19961;-73
2023/02/03 03:43:31;;;;;;;;;;;;;;;-144.99;100.00;52456.25;5031866;28;20065;-72
2023/02/03 03:46:00;;;;;;;;;;;;;;;-144.99;100.00;52509.25;5034670;28;20414;-71
2023/02/03 03:48:28;;;;;;;;;;;;;;;-144.99;100.00;52452.16;5030922;28;19964;-71
2023/02/03 03:50:58;;;;;;;;;;;;;;;-144.99;100.00;52492.94;5025867;28;19993;-74
2023/02/03 03:53:27;;;;;;;;;;;;;;;-144.99;100.00;52476.63;5028631;28;19982;-75
2023/02/03 03:55:54;;;;;;;;;;;;;;;-144.99;100.00;52501.09;5029098;28;20052;-74
2023/02/03 03:58:24;;;;;;;;;;;;;;;-144.99;100.00;52497.00;5027893;28;19976;-72
2023/02/03 04:00:53;;;;;;;;;;;;;;;-144.99;100.00;52480.72;5032865;28;19988;-74
2023/02/03 04:03:23;;;;;;;;;;;;;;;-144.99;100.00;52472.56;5030555;28;19968;-74
2023/02/03 04:05:49;;;;;;;;;;;;;;;-144.99;100.00;52454.22;5039683;28;19941;-73
2023/02/03 04:08:16;;;;;;;;;;;;;;;-144.99;100.00;52488.84;5030199;28;20056;-71
2023/02/03 04:10:43;;;;;;;;;;;;;;;-144.99;100.00;52501.09;5031223;28;19961;-72
2023/02/03 04:13:11;;;;;;;;;;;;;;;-144.99;100.00;52460.31;5030319;28;20042;-73
2023/02/03 04:15:39;;;;;;;;;;;;;;;-144.99;100.00;52499.06;5033618;28;19939;-74
2023/02/03 04:18:05;;;;;;;;;;;;;;;-144.99;100.00;52488.84;5042100;28;19992;-73
2023/02/03 04:20:32;;;;;;;;;;;;;;;-144.99;100.00;52476.63;5047827;28;19975;-75
2023/02/03 04:22:59;;;;;;;;;;;;;;;-144.99;100.00;52484.78;5052058;28;19931;-74
2023/02/03 04:25:25;;;;;;;;;;;;;;;-144.99;100.00;52456.25;5053039;28;19945;-75
2023/02/03 04:27:52;;;;;;;;;;;;;;;-144.99;100.00;52464.41;5059467;28;19956;-73
2023/02/03 04:30:18;;;;;;;;;;;;;;;-144.99;100.00;52448.09;5053635;28;20025;-74
2023/02/03 04:32:46;;;;;;;;;;;;;;;-144.99;100.00;52446.06;5045792;28;19933;-74
2023/02/03 04:35:13;;;;;;;;;;;;;;;-144.99;100.00;52452.16;5046491;28;19965;-75
2023/02/03 04:37:39;;;;;;;;;;;;;;;-144.99;100.00;52497.00;5042129;28;19939;-73
2023/02/03 04:40:06;;;;;;;;;;;;;;;-144.99;100.00;52505.16;5040146;28;19957;-75
2023/02/03 04:42:33;;;;;;;;;;;;;;;-144.99;100.00;52452.16;5053595;28;20026;-74
2023/02/03 04:44:59;;;;;;;;;;;;;;;-144.99;100.00;52492.94;5056012;28;19927;-74
2023/02/03 04:47:26;;;;;;;;;;;;;;;-144.99;100.00;52484.78;5056583;28;19980;-72
2023/02/03 04:49:54;;;;;;;;;;;;;;;-144.99;100.00;52492.94;5054327;28;20224;-74
2023/02/03 04:52:20;;;;;;;;;;;;;;;-144.99;100.00;52464.41;5058013;28;19912;-73
2023/02/03 04:54:47;;;;;;;;;;;;;;;-144.99;100.00;52492.94;5057062;28;19951;-73
2023/02/03 04:57:13;;;;;;;;;;;;;;;-144.99;100.00;52480.72;5060365;28;19913;-74
2023/02/03 04:59:40;;;;;;;;;;;;;;;-144.99;100.00;52456.25;5055333;28;19959;-73
2023/02/03 05:02:07;;;;;;;;;;;;;;;-144.99;100.00;52435.88;5058990;28;20230;-73
2023/02/03 05:04:33;;;;;;;;;;;;;;;-144.99;100.00;52450.13;5053091;28;19943;-74
2023/02/03 05:07:01;;;;;;;;;;;;;;;-144.99;100.00;52480.72;5054871;28;19955;-74
2023/02/03 05:09:28;;;;;;;;;;;;;;;-144.99;100.00;52492.94;5050009;28;19948;-74
2023/02/03 05:11:54;;;;;;;;;;;;;;;-144.99;100.00;52492.94;5041501;28;20015;-74
2023/02/03 05:14:21;;;;;;;;;;;;;;;-144.99;100.00;52464.41;5034283;28;19994;-76
2023/02/03 05:16:47;;;;;;;;;;;;;;;-144.99;100.00;52460.31;5040269;28;20410;-74
2023/02/03 05:19:14;;;;;;;;;;;;;;;-144.99;100.00;52472.56;5029827;28;20516;-74
2023/02/03 05:21:40;;;;;;;;;;;;;;;-144.99;100.00;52460.31;5036721;28;19983;-75
2023/02/03 05:24:08;;;;;;;;;;;;;;;-144.99;100.00;52444.03;5039009;28;19947;-75
2023/02/03 05:26:35;;;;;;;;;;;;;;;-144.99;100.00;52484.78;5056699;28;19929;-74
2023/02/03 05:29:02;;;;;;;;;;;;;;;-144.99;100.00;52456.25;5064803;28;20233;-73
2023/02/03 05:31:28;;;;;;;;;;;;;;;-144.99;100.00;52462.34;5045396;28;19957;-72
2023/02/03 05:33:55;;;;;;;;;;;;;;;-144.99;100.00;52480.72;5055159;28;19929;-73
2023/02/03 05:36:21;;;;;;;;;;;;;;;-144.99;100.00;52515.34;5060459;28;19957;-72
2023/02/03 05:38:47;;;;;;;;;;;;;;;-144.99;100.00;52468.47;5054224;28;20480;-71
2023/02/03 05:43:59;;;;;;;;;;;;;;;-144.99;100.00;52480.72;5032544;28;19962;-71
2023/02/03 05:46:26;;;;;;;;;;;;;;;-144.99;100.00;52505.16;5025696;28;20032;-72
2023/02/03 05:48:52;;;;;;;;;;;;;;;-144.99;100.00;52456.25;5035945;28;20857;-73
2023/02/03 05:51:19;;;;;;;;;;;;;;;-144.99;94.81;52407.31;5029372;28;19969;-75
2023/02/03 05:53:45;;;;;;;;;;;;;;;-144.99;83.87;52386.94;5020400;28;19943;-75
2023/02/03 05:56:12;;;;;;;;;;;;;;;-144.99;81.60;52415.47;5027454;28;19940;-74
2023/02/03 05:58:40;;;;;;;;;;;;;;;-144.99;81.83;52370.63;5034467;28;19936;-74
2023/02/03 06:01:06;;;;;;;;;;;;;;;-144.99;89.84;52427.72;5039738;28;20066;-75
2023/02/03 06:03:33;;;;;;;;;;;;;;;-144.99;87.51;52407.31;5036602;28;19997;-73
2023/02/03 06:05:59;;;;;;;;;;;;;;;-144.99;84.98;52368.59;5035270;28;20009;-73
2023/02/03 06:08:27;;;;;;;;;;;;;;;-144.99;84.39;52403.25;5026651;28;19990;-75
2023/02/03 06:10:59;;;;;;;;;;;;;;;-144.99;82.28;52374.72;5044702;28;20041;-75
2023/02/03 06:13:26;;;;;;;;;;;;;;;-144.99;80.04;52399.19;5039250;28;20013;-75
2023/02/03 06:15:54;;;;;;;;;;;;;;;-144.99;79.65;52407.31;4342516;28;10000716;-75
2023/02/03 06:18:21;;;;;;;;;;;;;;;-144.99;80.89;52439.94;5036215;28;19955;-76
2023/02/03 06:20:47;;;;;;;;;;;;;;;-144.99;80.01;52423.63;5033663;28;20169;-75
2023/02/03 06:23:15;;;;;;;;;;;;;;;-144.99;79.67;52397.13;5036336;28;19978;-74
2023/02/03 06:25:42;;;;;;;;;;;;;;;-144.99;80.78;52399.19;5032738;28;19950;-74
2023/02/03 06:28:09;;;;;;;;;;;;;;;-144.99;81.21;52374.72;5034842;28;20374;-76
2023/02/03 06:30:35;;;;;;;;;;;;;;;-144.99;83.35;52435.88;5032219;28;19963;-77
2023/02/03 06:33:03;;;;;;;;;;;;;;;-144.99;82.58;52415.47;5025470;28;19945;-75
2023/02/03 06:35:29;;;;;;;;;;;;;;;-144.99;81.46;52378.78;5023717;28;19966;-75
2023/02/03 06:37:56;;;;;;;;;;;;;;;-144.99;82.16;52444.03;5021428;28;19996;-73
2023/02/03 06:40:22;;;;;;;;;;;;;;;-144.99;82.34;52429.75;5024080;28;20219;-76
2023/02/03 06:42:49;;;;;;;;;;;;;;;-144.99;82.75;52427.72;5028666;28;20019;-74
2023/02/03 06:45:16;;;;;;;;;;;;;;;-144.99;81.47;52419.56;5024952;28;19975;-74
2023/02/03 06:47:43;;;;;;;;;;;;;;;-144.99;83.15;52403.25;5023296;28;20025;-75
2023/02/03 06:50:12;;;;;;;;;;;;;;;-144.99;84.24;52399.19;5021697;28;20352;-74
2023/02/03 06:52:38;;;;;;;;;;;;;;;-144.99;82.86;52439.94;5029189;28;19940;-74
2023/02/03 06:55:06;;;;;;;;;;;;;;;-144.99;82.79;52391.03;5043856;28;19948;-74
2023/02/03 06:57:32;;;;;;;;;;;;;;;-144.99;83.66;52425.66;5016474;28;19936;-75
2023/02/03 06:59:59;;;;;;;;;;;;;;;-144.99;83.36;52431.78;5006127;28;19942;-73
2023/02/03 07:02:25;;;;;;;;;;;;;;;-144.99;83.37;52397.13;5007835;28;20257;-74
2023/02/03 07:04:51;;;;;;;;;;;;;;;-144.99;83.99;52431.78;5009855;28;20046;-75
2023/02/03 07:07:19;;;;;;;;;;;;;;;-144.99;84.28;52419.56;5008055;28;20027;-74
2023/02/03 07:09:46;;;;;;;;;;;;;;;-144.99;86.43;52411.41;5006238;28;19947;-73
2023/02/03 07:12:12;;;;;;;;;;;;;;;-144.99;85.61;52474.59;5007308;28;20016;-75
2023/02/03 07:14:39;;;;;;;;;;;;;;;-144.99;84.59;52462.34;5005664;28;20036;-73
2023/02/03 07:17:05;;;;;;;;;;;;;;;-144.99;84.78;52468.47;5006484;28;19991;-74
2023/02/03 07:19:32;;;;;;;;;;;;;;;-144.99;87.46;52494.97;5009490;28;20027;-74
2023/02/03 07:21:58;;;;;;;;;;;;;;;-144.99;86.92;52460.31;5005954;28;20098;-74
2023/02/03 07:24:26;;;;;;;;;;;;;;;-144.99;87.07;52454.22;5009081;28;19989;-74
2023/02/03 07:26:53;;;;;;;;;;;;;;;-144.99;89.36;52497.00;5009080;28;19979;-75
2023/02/03 07:29:19;;;;;;;;;;;;;;;-144.99;92.31;52427.72;5004702;28;19964;-75
2023/02/03 07:31:46;;;;;;;;;;;;;;;-144.99;89.21;52456.25;5033767;28;19940;-75
2023/02/03 07:34:12;;;;;;;;;;;;;;;-144.99;88.14;52423.63;5031499;28;19949;-76
2023/02/03 07:36:40;;;;;;;;;;;;;;;-144.99;87.85;52423.63;5040441;28;20013;-76
2023/02/03 07:39:06;;;;;;;;;;;;;;;-144.99;87.41;52497.00;5022640;28;19997;-76
2023/02/03 07:41:34;;;;;;;;;;;;;;;-144.99;89.40;52431.78;5029734;28;20004;-75
2023/02/03 07:44:01;;;;;;;;;;;;;;;-144.99;87.51;52448.09;5025732;28;20442;-75
2023/02/03 07:46:28;;;;;;;;;;;;;;;-144.99;92.45;52464.41;5026169;28;19936;-76
2023/02/03 07:48:54;;;;;;;;;;;;;;;-144.99;88.84;52456.25;5022928;28;20046;-74
2023/02/03 07:51:21;;;;;;;;;;;;;;;-144.99;88.73;52464.41;5025122;28;20072;-75
2023/02/03 07:53:47;;;;;;;;;;;;;;;-144.99;92.58;52452.16;5026331;28;20462;-76
2023/02/03 07:56:14;;;;;;;;;;;;;;;-144.99;89.92;52472.56;5025172;28;19947;-74
2023/02/03 07:58:41;;;;;;;;;;;;;;;-144.99;91.80;52444.03;5025196;28;20466;-75
2023/02/03 08:01:12;;;;;;;;;;;;;;;-144.99;87.60;52435.88;5024595;28;19969;-74
2023/02/03 08:03:39;;;;;;;;;;;;;;;-144.99;87.71;52476.63;5028518;28;20035;-74
2023/02/03 08:06:05;;;;;;;;;;;;;;;-144.99;87.77;52450.13;5026432;28;20116;-74
2023/02/03 08:08:32;;;;;;;;;;;;;;;-144.99;88.54;52446.06;5039675;28;19958;-73
2023/02/03 08:10:58;;;;;;;;;;;;;;;-144.99;88.17;52476.63;5047681;28;20025;-74
2023/02/03 08:13:25;;;;;;;;;;;;;;;-144.99;86.33;52439.94;5024894;28;20395;-75
2023/02/03 08:15:53;;;;;;;;;;;;;;;-144.99;86.77;52456.25;5023516;28;19985;-75
2023/02/03 08:18:19;;;;;;;;;;;;;;;-144.99;86.31;52480.72;5024337;28;20470;-76
2023/02/03 08:20:46;;;;;;;;;;;;;;;-144.99;84.76;52486.81;5024446;28;20719;-74
2023/02/03 08:23:13;;;;;;;;;;;;;;;-144.99;85.23;52501.09;5024413;28;20163;-76
2023/02/03 08:25:39;;;;;;;;;;;;;;;-144.99;84.88;52480.72;5024482;28;19954;-76
2023/02/03 08:28:06;;;;;;;;;;;;;;;-144.99;85.05;52503.13;5032596;28;19968;-75
2023/02/03 08:30:32;;;;;;;;;;;;;;;-144.99;82.79;52464.41;5029045;28;20422;-74
2023/02/03 08:33:00;;;;;;;;;;;;;;;-144.99;81.57;52468.47;5030047;28;19979;-74
2023/02/03 08:35:27;;;;;;;;;;;;;;;-144.99;80.10;52431.78;5033657;28;19994;-76
2023/02/03 08:37:53;;;;;;;;;;;;;;;-144.99;79.49;52444.03;5028941;28;20378;-74
2023/02/03 08:40:20;;;;;;;;;;;;;;;-144.99;78.52;52484.78;5027361;28;20584;-76
2023/02/03 08:42:46;;;;;;;;;;;;;;;-144.99;76.64;52444.03;5031924;28;19945;-76
2023/02/03 08:45:13;;;;;;;;;;;;;;;-144.99;75.28;52456.25;5033232;28;19975;-75
2023/02/03 08:47:39;;;;;;;;;;;;;;;-144.99;74.94;52427.72;5051154;28;19923;-75
2023/02/03 08:50:08;;;;;;;;;;;;;;;-144.99;74.02;52503.13;5040069;28;19964;-76
2023/02/03 08:52:34;;;;;;;;;;;;;;;-144.99;75.02;52480.72;5029233;28;20494;-76
2023/02/03 08:55:01;;;;;;;;;;;;;;;-144.99;74.17;52480.72;5029979;28;19958;-76
2023/02/03 08:57:27;;;;;;;;;;;;;;;-144.99;73.00;52501.09;5025362;28;20340;-76
2023/02/03 08:59:54;;;;;;;;;;;;;;;-144.99;73.39;52474.59;5018070;28;19987;-76
2023/02/03 09:02:20;;;;;;;;;;;;;;;-144.99;74.51;52492.94;5020422;28;20127;-77
2023/02/03 09:04:48;;;;;;;;;;;;;;;-144.99;74.13;52484.78;5029154;28;20462;-76
2023/02/03 09:07:16;;;;;;;;;;;;;;;-144.99;74.05;52478.66;5026453;28;19973;-74
2023/02/03 09:09:44;;;;;;;;;;;;;;;-144.99;72.26;52439.94;5022769;28;20453;-76
2023/02/03 09:12:11;;;;;;;;;;;;;;;-144.99;74.41;52437.91;5019908;28;20426;-77
2023/02/03 09:14:38;;;;;;;;;;;;;;;-144.99;74.96;52464.41;5026725;28;19995;-76
2023/02/03 09:17:06;;;;;;;;;;;;;;;-144.99;70.45;52435.88;5024932;28;19948;-76
2023/02/03 09:19:33;;;;;;;;;;;;;;;-144.99;72.61;52482.75;5026456;28;20023;-74
2023/02/03 09:22:00;;;;;;;;;;;;;;;-144.99;69.48;52431.78;5057150;22;19999;-78
2023/02/03 09:24:28;;;;;;;;;;;;;;;-144.99;69.32;52458.28;5074971;28;20349;-83
2023/02/03 09:26:54;;;;;;;;;;;;;;;-144.99;69.73;52468.47;5085333;28;19935;-79
2023/02/03 09:29:22;;;;;;;;;;;;;;;-144.99;68.33;52464.41;5062912;28;20006;-81
2023/02/03 09:31:51;;;;;;;;;;;;;;;-144.99;69.11;52444.03;5063845;28;19928;-77
2023/02/03 09:34:18;;;;;;;;;;;;;;;-144.99;68.29;52476.63;5062661;28;19946;-80
2023/02/03 09:36:44;;;;;;;;;;;;;;;-144.99;67.75;52456.25;5062987;28;20286;-78
2023/02/03 09:39:11;;;;;;;;;;;;;;;-144.99;67.62;52484.78;5063015;28;20012;-79
2023/02/03 09:41:51;;;;;;;;;;;;;;;-144.99;67.80;52448.09;5062950;28;20017;-81
2023/02/03 09:44:20;;;;;;;;;;;;;;;-144.99;67.78;52497.00;5065693;28;20092;-81
2023/02/03 09:46:48;;;;;;;;;;;;;;;-144.99;67.75;52456.25;5066335;28;19982;-81
2023/02/03 09:49:16;;;;;;;;;;;;;;;-144.99;70.12;52501.09;5064237;28;19989;-78
2023/02/03 09:51:45;;;;;;;;;;;;;;;-144.99;68.49;52480.72;5062704;28;20042;-79
2023/02/03 09:54:16;;;;;;;;;;;;;;;-144.99;69.13;52448.09;5065748;28;19939;-84
2023/02/03 09:56:48;;;;;;;;;;;;;;;-144.99;70.23;52476.63;5064136;28;19951;-80
2023/02/03 09:59:16;;;;;;;;;;;;;;;-144.99;71.31;52452.16;5064482;28;19941;-82
2023/02/03 10:01:51;;;;;;;;;;;;;;;-144.99;73.99;52476.63;5068364;28;19927;-89
2023/02/03 10:04:26;;;;;;;;;;;;;;;-144.99;72.56;52427.72;5088124;28;19961;-82
2023/02/03 10:06:56;;;;;;;;;;;;;;;-144.99;71.14;52429.75;5057730;28;20019;-80
2023/02/03 10:09:30;;;;;;;;;;;;;;;-144.99;70.03;52476.63;5065449;28;19996;-83
2023/02/03 10:12:16;;;;;;;;;;;;;;;-144.99;70.00;52444.03;5065673;28;19936;-83
2023/02/03 10:14:53;;;;;;;;;;;;;;;-144.99;69.71;52509.25;5062765;28;20040;-81
2023/02/03 10:17:29;;;;;;;;;;;;;;;-144.99;70.62;52456.25;5064786;28;19955;-82
2023/02/03 10:19:58;;;;;;;;;;;;;;;-144.99;69.94;52458.28;5072894;28;19944;-79
2023/02/03 10:22:27;;;;;;;;;;;;;;;-144.99;68.55;52492.94;5065997;28;20081;-83
2023/02/03 10:24:56;;;;;;;;;;;;;;;-144.99;67.27;52435.88;5067522;28;19954;-80
2023/02/03 10:27:24;;;;;;;;;;;;;;;-144.99;66.93;52472.56;5066198;28;20216;-79
2023/02/03 10:29:55;;;;;;;;;;;;;;;-144.99;66.00;52474.59;5061367;28;19965;-82
2023/02/03 10:32:24;;;;;;;;;;;;;;;-144.99;65.86;52456.25;5057690;28;19967;-82
2023/02/03 10:34:50;;;;;;;;;;;;;;;-144.99;65.60;52454.22;5063856;28;19999;-79
2023/02/03 10:37:23;;;;;;;;;;;;;;;-144.99;66.01;52444.03;5066572;28;20022;-83
2023/02/03 10:39:51;;;;;;;;;;;;;;;-144.99;65.22;52472.56;5072449;28;19941;-86
2023/02/03 10:42:17;;;;;;;;;;;;;;;-144.99;65.87;52497.00;5089682;28;19967;-85
2023/02/03 10:44:46;;;;;;;;;;;;;;;-144.99;65.37;52452.16;5057474;28;20026;-84
2023/02/03 10:47:26;;;;;;;;;;;;;;;-144.99;63.96;52425.66;5064636;28;20539;-81
2023/02/03 10:49:54;;;;;;;;;;;;;;;-144.99;63.89;52439.94;5064272;28;19989;-81
2023/02/03 10:52:25;;;;;;;;;;;;;;;-144.99;63.19;52376.75;5064594;28;20061;-79
2023/02/03 10:54:51;;;;;;;;;;;;;;;-144.99;61.75;52464.41;5063863;28;19978;-79
2023/02/03 10:57:18;;;;;;;;;;;;;;;-144.99;62.38;52423.63;5064648;28;20034;-80
2023/02/03 10:59:45;;;;;;;;;;;;;;;-144.99;61.95;52382.88;5064650;28;20037;-78
2023/02/03 11:02:23;;;;;;;;;;;;;;;-144.99;60.51;52399.19;5062285;28;20044;-82
2023/02/03 11:05:08;;;;;;;;;;;;;;;-144.99;59.53;52352.28;5066688;28;19970;-78
2023/02/03 11:07:34;;;;;;;;;;;;;;;-144.99;58.01;52370.63;5067043;28;20676;-80
2023/02/03 11:10:01;;;;;;;;;;;;;;;-144.99;57.46;52354.34;5067347;28;20057;-79
2023/02/03 11:12:27;;;;;;;;;;;;;;;-144.99;56.85;52391.03;5069912;28;19990;-83
2023/02/03 11:14:54;;;;;;;;;;;;;;;-144.99;57.67;52395.09;5066654;28;20045;-81
2023/02/03 11:17:22;;;;;;;;;;;;;;;-144.99;57.53;52439.94;5070884;28;20063;-82
2023/02/03 11:19:50;;;;;;;;;;;;;;;-144.99;58.03;52435.88;5070814;28;20321;-82
2023/02/03 11:22:28;;;;;;;;;;;;;;;-144.99;57.71;52468.47;5073055;28;19963;-78
2023/02/03 11:24:55;;;;;;;;;;;;;;;-144.99;58.06;52421.59;5068620;28;19975;-80
2023/02/03 11:27:23;;;;;;;;;;;;;;;-144.99;57.09;52374.72;5068456;28;19944;-81
2023/02/03 11:29:52;;;;;;;;;;;;;;;-144.99;56.24;52342.09;5068169;28;20382;-78
2023/02/03 11:32:21;;;;;;;;;;;;;;;-144.99;55.78;52346.19;5067622;28;20125;-80
2023/02/03 11:34:55;;;;;;;;;;;;;;;-144.99;55.34;52362.50;5069374;28;20351;-79
2023/02/03 11:37:32;;;;;;;;;;;;;;;-144.99;55.15;52384.91;5067983;28;19928;-80
2023/02/03 11:40:13;;;;;;;;;;;;;;;-144.99;55.31;52393.06;5067448;28;19951;-78
2023/02/03 11:42:41;;;;;;;;;;;;;;;-144.99;54.03;52331.91;5072113;28;19925;-78
2023/02/03 11:45:14;;;;;;;;;;;;;;;-144.99;53.41;52289.13;5064999;28;19933;-81
2023/02/03 11:47:44;;;;;;;;;;;;;;;-144.99;53.27;52356.38;5061726;28;19983;-79
2023/02/03 11:50:19;;;;;;;;;;;;;;;-144.99;52.19;52382.88;5064737;28;19990;-81
2023/02/03 11:52:54;;;;;;;;;;;;;;;-144.99;53.00;52370.63;5065263;28;20383;-76
2023/02/03 11:55:31;;;;;;;;;;;;;;;-144.99;53.17;52317.66;5088927;28;19994;-86
2023/02/03 11:58:03;;;;;;;;;;;;;;;-144.99;53.34;52360.44;5077139;28;19928;-78
2023/02/03 12:00:36;;;;;;;;;;;;;;;-144.99;53.46;52439.94;5066090;28;19928;-78
2023/02/03 12:03:15;;;;;;;;;;;;;;;-144.99;54.38;52407.31;5066716;28;20022;-79
2023/02/03 12:06:02;;;;;;;;;;;;;;;-144.99;55.04;52386.94;5070378;28;19928;-75
2023/02/03 12:08:39;;;;;;;;;;;;;;;-144.99;54.20;52456.25;5064841;28;19963;-80
2023/02/03 12:11:11;;;;;;;;;;;;;;;-144.99;55.47;52448.09;5067819;28;19982;-84
2023/02/03 12:13:53;;;;;;;;;;;;;;;-144.99;56.71;52501.09;5068409;28;19928;-80
2023/02/03 12:16:26;;;;;;;;;;;;;;;-144.99;57.20;52468.47;5064605;28;19935;-81
2023/02/03 12:18:57;;;;;;;;;;;;;;;-144.99;57.73;52480.72;5067040;28;19936;-83
2023/02/03 12:21:32;;;;;;;;;;;;;;;-144.99;59.54;52492.94;5066310;28;19929;-79
2023/02/03 12:24:04;;;;;;;;;;;;;;;-144.99;59.86;52497.00;5069210;28;20007;-80
2023/02/03 12:26:34;;;;;;;;;;;;;;;-144.99;61.43;52494.97;5061234;28;19932;-82
2023/02/03 12:29:04;;;;;;;;;;;;;;;-144.99;60.34;52472.56;5068863;28;19928;-81
2023/02/03 12:31:34;;;;;;;;;;;;;;;-144.99;60.98;52488.84;5077255;28;19929;-90